createdAt,value
2023-03-05T00:00:55.661Z,100224.89
2023-03-05T00:03:11.131Z,100222.99
2023-03-05T00:05:23.703Z,100225.36
2023-03-05T00:07:36.281Z,100225.02
2023-03-05T00:09:48.858Z,100221.14
2023-03-05T00:12:01.457Z,100221.30
2023-03-05T00:14:14.103Z,100219.77
2023-03-05T00:16:28.066Z,100216.74
2023-03-05T00:18:41.755Z,100210.75
2023-03-05T00:20:54.524Z,100208.38
2023-03-05T00:23:07.114Z,100209.95
2023-03-05T00:25:19.654Z,100205.98
2023-03-05T00:27:32.197Z,100205.14
2023-03-05T00:29:44.811Z,100201.37
2023-03-05T00:31:57.346Z,100198.95
2023-03-05T00:34:13.712Z,100194.66
2023-03-05T00:36:26.771Z,100188.83
2023-03-05T00:38:39.346Z,100184.05
2023-03-05T00:40:51.945Z,100182.52
2023-03-05T00:43:05.621Z,100181.81
2023-03-05T00:45:18.282Z,100182.83
2023-03-05T00:47:30.878Z,100182.10
2023-03-05T00:49:43.459Z,100183.42
2023-03-05T00:51:56.034Z,100179.65
2023-03-05T00:54:09.788Z,100178.15
2023-03-05T00:56:22.420Z,100177.55
2023-03-05T00:58:35.186Z,100169.05
2023-03-05T01:00:50.570Z,100166.70
2023-03-05T01:03:03.640Z,100167.42
2023-03-05T01:05:16.313Z,100164.03
2023-03-05T01:07:28.890Z,100156.86
2023-03-05T01:09:41.475Z,100154.45
2023-03-05T01:11:54.541Z,100152.73
2023-03-05T01:14:07.258Z,100153.02
2023-03-05T01:16:19.934Z,100149.78
2023-03-05T01:18:33.110Z,100146.39
2023-03-05T01:20:45.920Z,100142.64
2023-03-05T01:22:59.266Z,100140.45
2023-03-05T01:25:13.846Z,100135.69
2023-03-05T01:27:26.512Z,100133.33
2023-03-05T01:29:39.152Z,100130.39
2023-03-05T01:31:51.781Z,100133.11
2023-03-05T01:34:04.405Z,100132.08
2023-03-05T01:36:17.107Z,100130.02
2023-03-05T01:38:29.735Z,100131.40
2023-03-05T01:40:43.712Z,100130.05
2023-03-05T01:43:00.885Z,100131.95
2023-03-05T01:45:18.624Z,100128.41
2023-03-05T01:47:31.156Z,100123.69
2023-03-05T01:49:43.739Z,100122.68
2023-03-05T01:52:02.613Z,100121.81
2023-03-05T01:54:18.432Z,100122.51
2023-03-05T01:56:31.070Z,100120.46
2023-03-05T01:58:45.074Z,100116.70
2023-03-05T02:00:57.641Z,100116.70
2023-03-05T02:03:11.556Z,100113.79
2023-03-05T02:05:30.712Z,100113.79
2023-03-05T02:07:45.122Z,100119.27
2023-03-05T02:09:57.739Z,100115.38
2023-03-05T02:12:12.415Z,100116.41
2023-03-05T02:14:25.938Z,100115.27
2023-03-05T02:16:39.352Z,100116.50
2023-03-05T02:18:52.048Z,100113.95
2023-03-05T02:21:08.977Z,100112.59
2023-03-05T02:23:22.660Z,100114.34
2023-03-05T02:25:35.268Z,100107.70
2023-03-05T02:28:13.477Z,100102.09
2023-03-05T02:30:26.397Z,100101.29
2023-03-05T02:32:39.051Z,100101.14
2023-03-05T02:34:51.700Z,100100.48
2023-03-05T02:37:08.952Z,100095.53
2023-03-05T02:39:21.572Z,100093.86
2023-03-05T02:41:34.190Z,100092.21
2023-03-05T02:43:46.735Z,100087.98
2023-03-05T02:45:59.425Z,100085.44
2023-03-05T02:48:12.017Z,100083.95
2023-03-05T02:50:26.646Z,100081.59
2023-03-05T02:52:39.331Z,100078.23
2023-03-05T02:54:52.649Z,100073.27
2023-03-05T02:57:05.172Z,100070.87
2023-03-05T02:59:17.828Z,100066.77
2023-03-05T03:01:30.542Z,100070.67
2023-03-05T03:03:43.069Z,100068.64
2023-03-05T03:05:55.658Z,100071.56
2023-03-05T03:08:08.416Z,100063.72
2023-03-05T03:10:21.071Z,100062.33
2023-03-05T03:12:38.215Z,100061.10
2023-03-05T03:14:50.803Z,100062.42
2023-03-05T03:17:03.617Z,100060.70
2023-03-05T03:19:16.521Z,100055.40
2023-03-05T03:21:29.167Z,100053.34
2023-03-05T03:23:41.714Z,100053.19
2023-03-05T03:25:54.285Z,100047.55
2023-03-05T03:28:06.851Z,100044.31
2023-03-05T03:30:19.527Z,100040.18
2023-03-05T03:32:33.343Z,100037.80
2023-03-05T03:34:48.097Z,100033.87
2023-03-05T03:37:01.744Z,100031.34
2023-03-05T03:39:15.105Z,100029.10
2023-03-05T03:41:27.661Z,100027.70
2023-03-05T03:43:40.206Z,100020.14
2023-03-05T03:45:52.886Z,100017.73
2023-03-05T03:48:05.728Z,100013.18
2023-03-05T03:50:18.983Z,100012.18
2023-03-05T03:52:31.567Z,100010.64
2023-03-05T03:54:44.166Z,100007.93
2023-03-05T03:56:56.759Z,100005.05
2023-03-05T03:59:09.402Z,100002.86
2023-03-05T04:01:22.081Z,99995.83
2023-03-05T04:03:34.664Z,99991.54
2023-03-05T04:05:47.245Z,99987.64
2023-03-05T04:08:01.379Z,99986.97
2023-03-05T04:10:13.972Z,99987.14
2023-03-05T04:12:26.561Z,99983.92
2023-03-05T04:14:39.091Z,99978.95
2023-03-05T04:16:51.635Z,99977.23
2023-03-05T04:19:04.217Z,99973.13
2023-03-05T04:21:16.917Z,99972.77
2023-03-05T04:23:29.559Z,99966.08
2023-03-05T04:25:42.139Z,99964.88
2023-03-05T04:27:54.638Z,99959.91
2023-03-05T04:30:09.884Z,99961.30
2023-03-05T04:32:26.022Z,99958.24
2023-03-05T04:34:38.711Z,99957.57
2023-03-05T04:36:51.268Z,99948.17
2023-03-05T04:39:04.825Z,99943.20
2023-03-05T04:41:17.657Z,99941.15
2023-03-05T04:43:30.263Z,99940.27
2023-03-05T04:45:44.114Z,99937.53
2023-03-05T04:47:56.711Z,99933.27
2023-03-05T04:50:09.796Z,99933.09
2023-03-05T04:52:22.339Z,99929.67
2023-03-05T04:54:34.969Z,99929.39
2023-03-05T04:56:47.478Z,99924.44
2023-03-05T04:59:00.325Z,99925.27
2023-03-05T05:01:13.331Z,99924.24
2023-03-05T05:03:25.897Z,99922.71
2023-03-05T05:05:38.498Z,99918.67
2023-03-05T05:07:55.198Z,99921.23
2023-03-05T05:10:08.900Z,99911.79
2023-03-05T05:12:21.459Z,99910.91
2023-03-05T05:14:34.684Z,99914.12
2023-03-05T05:16:47.317Z,99915.83
2023-03-05T05:18:59.889Z,99916.84
2023-03-05T05:21:13.855Z,99916.45
2023-03-05T05:23:26.778Z,99917.30
2023-03-05T05:25:39.515Z,99913.98
2023-03-05T05:27:52.078Z,99913.26
2023-03-05T05:30:05.893Z,99909.78
2023-03-05T05:32:24.010Z,99910.21
2023-03-05T05:34:36.625Z,99908.61
2023-03-05T05:36:49.199Z,99908.42
2023-03-05T05:39:01.795Z,99907.21
2023-03-05T05:41:18.219Z,99906.37
2023-03-05T05:43:31.185Z,99903.15
2023-03-05T05:45:44.026Z,99903.34
2023-03-05T05:47:56.730Z,99906.43
2023-03-05T05:50:10.943Z,99903.02
2023-03-05T05:52:23.542Z,99902.40
2023-03-05T05:54:36.200Z,99901.37
2023-03-05T05:56:48.731Z,99901.34
2023-03-05T05:59:01.315Z,99900.64
2023-03-05T06:01:33.442Z,99902.00
2023-03-05T06:03:46.341Z,99900.17
2023-03-05T06:05:58.955Z,99897.11
2023-03-05T06:08:11.620Z,99900.54
2023-03-05T06:10:24.270Z,99891.83
2023-03-05T06:12:37.225Z,99891.11
2023-03-05T06:14:49.785Z,99889.74
2023-03-05T06:17:02.613Z,99890.75
2023-03-05T06:19:16.137Z,99888.09
2023-03-05T06:21:28.763Z,99890.73
2023-03-05T06:23:42.672Z,99885.59
2023-03-05T06:25:59.680Z,99885.44
2023-03-05T06:28:12.403Z,99884.25
2023-03-05T06:30:24.962Z,99882.54
2023-03-05T06:32:37.631Z,99884.06
2023-03-05T06:34:50.351Z,99881.16
2023-03-05T06:37:03.022Z,99881.10
2023-03-05T06:39:15.741Z,99880.30
2023-03-05T06:41:30.133Z,99880.96
2023-03-05T06:43:44.476Z,99879.75
2023-03-05T06:46:12.851Z,99883.36
2023-03-05T06:48:25.486Z,99882.88
2023-03-05T06:50:38.239Z,99878.73
2023-03-05T06:52:50.960Z,99879.77
2023-03-05T06:55:03.703Z,99880.73
2023-03-05T06:57:16.380Z,99880.02
2023-03-05T06:59:29.007Z,99882.73
2023-03-05T07:01:42.271Z,99875.98
2023-03-05T07:03:55.624Z,99877.98
2023-03-05T07:06:11.180Z,99877.92
2023-03-05T07:08:23.818Z,99877.57
2023-03-05T07:10:41.649Z,99874.40
2023-03-05T07:12:54.202Z,99875.98
2023-03-05T07:15:07.410Z,99873.38
2023-03-05T07:17:19.937Z,99877.76
2023-03-05T07:19:33.105Z,99877.06
2023-03-05T07:21:45.675Z,99874.25
2023-03-05T07:24:00.852Z,99872.55
2023-03-05T07:26:13.503Z,99873.20
2023-03-05T07:28:26.085Z,99870.73
2023-03-05T07:30:38.689Z,99869.98
2023-03-05T07:32:51.310Z,99871.66
2023-03-05T07:35:04.122Z,99871.64
2023-03-05T07:37:16.668Z,99867.16
2023-03-05T07:39:29.281Z,99863.73
2023-03-05T07:41:41.816Z,99867.95
2023-03-05T07:43:54.840Z,99864.98
2023-03-05T07:46:10.145Z,99864.71
2023-03-05T07:48:25.336Z,99869.27
2023-03-05T07:50:37.975Z,99867.01
2023-03-05T07:52:50.600Z,99864.58
2023-03-05T07:55:03.369Z,99864.37
2023-03-05T07:57:15.992Z,99865.63
2023-03-05T07:59:28.520Z,99862.23
2023-03-05T08:01:41.556Z,99864.50
2023-03-05T08:03:54.253Z,99864.48
2023-03-05T08:06:07.917Z,99866.89
2023-03-05T08:08:20.562Z,99869.20
2023-03-05T08:10:34.539Z,99876.58
2023-03-05T08:12:47.117Z,99875.20
2023-03-05T08:14:59.726Z,99874.41
2023-03-05T08:17:12.380Z,99874.84
2023-03-05T08:19:24.994Z,99874.98
2023-03-05T08:21:37.537Z,99880.33
2023-03-05T08:23:50.127Z,99887.01
2023-03-05T08:26:11.818Z,99889.86
2023-03-05T08:28:24.336Z,99893.25
2023-03-05T08:30:37.448Z,99893.60
2023-03-05T08:32:50.162Z,99889.52
2023-03-05T08:35:04.589Z,99890.45
2023-03-05T08:37:17.084Z,99885.14
2023-03-05T08:39:30.202Z,99884.48
2023-03-05T08:41:42.920Z,99873.81
2023-03-05T08:43:55.653Z,99873.20
2023-03-05T08:46:08.295Z,99872.67
2023-03-05T08:48:20.865Z,99872.42
2023-03-05T08:50:33.450Z,99871.84
2023-03-05T08:52:45.928Z,99872.15
2023-03-05T08:54:58.484Z,99871.88
2023-03-05T08:57:11.020Z,99871.67
2023-03-05T08:59:23.524Z,99873.27
2023-03-05T09:01:36.092Z,99874.76
2023-03-05T09:03:48.614Z,99870.80
2023-03-05T09:06:03.400Z,99866.84
2023-03-05T09:08:16.036Z,99867.58
2023-03-05T09:10:28.640Z,99871.34
2023-03-05T09:12:42.071Z,99868.08
2023-03-05T09:14:55.980Z,99869.23
2023-03-05T09:17:09.056Z,99869.12
2023-03-05T09:19:21.645Z,99868.27
2023-03-05T09:21:34.907Z,99867.79
2023-03-05T09:23:47.451Z,99867.29
2023-03-05T09:26:00.014Z,99870.95
2023-03-05T09:28:12.636Z,99866.56
2023-03-05T09:30:25.213Z,99866.11
2023-03-05T09:32:37.769Z,99865.33
2023-03-05T09:34:50.455Z,99866.34
2023-03-05T09:37:04.010Z,99862.24
2023-03-05T09:39:16.966Z,99865.80
2023-03-05T09:41:37.001Z,99862.97
2023-03-05T09:44:10.928Z,99862.07
2023-03-05T09:46:39.091Z,99861.31
2023-03-05T09:48:57.023Z,99856.23
2023-03-05T09:51:16.682Z,99857.48
2023-03-05T09:53:38.778Z,99859.80
2023-03-05T09:55:58.642Z,99848.58
2023-03-05T09:58:16.113Z,99851.20
2023-03-05T10:00:37.581Z,99851.41
2023-03-05T10:02:58.351Z,99848.19
2023-03-05T10:05:20.584Z,99841.93
2023-03-05T10:07:40.038Z,99839.09
2023-03-05T10:10:16.737Z,99835.45
2023-03-05T10:12:43.457Z,99827.95
2023-03-05T10:14:57.128Z,99821.73
2023-03-05T10:17:18.833Z,99826.77
2023-03-05T10:19:48.178Z,99822.13
2023-03-05T10:22:27.083Z,99816.66
2023-03-05T10:24:57.057Z,99813.48
2023-03-05T10:27:19.925Z,99804.52
2023-03-05T10:29:54.942Z,99791.51
2023-03-05T10:32:25.136Z,99786.28
2023-03-05T10:35:01.978Z,99780.16
2023-03-05T10:37:33.095Z,99783.65
2023-03-05T10:39:54.698Z,99789.42
2023-03-05T10:42:52.352Z,99784.36
2023-03-05T10:45:33.241Z,99786.48
2023-03-05T10:47:52.203Z,99785.96
2023-03-05T10:50:17.622Z,99789.39
2023-03-05T10:52:35.232Z,99789.06
2023-03-05T10:54:48.162Z,99788.70
2023-03-05T10:57:28.207Z,99784.74
2023-03-05T10:59:52.934Z,99783.45
2023-03-05T11:02:08.804Z,99789.27
2023-03-05T11:04:31.996Z,99786.36
2023-03-05T11:06:45.863Z,99783.26
2023-03-05T11:09:19.751Z,99784.75
2023-03-05T11:11:33.319Z,99784.42
2023-03-05T11:14:02.251Z,99780.16
2023-03-05T11:16:22.126Z,99781.06
2023-03-05T11:18:34.771Z,99781.88
2023-03-05T11:20:47.700Z,99776.48
2023-03-05T11:23:15.293Z,99769.98
2023-03-05T11:25:28.057Z,99765.11
2023-03-05T11:27:58.938Z,99765.91
2023-03-05T11:30:26.661Z,99763.00
2023-03-05T11:32:39.213Z,99761.80
2023-03-05T11:34:53.618Z,99755.83
2023-03-05T11:37:06.613Z,99747.23
2023-03-05T11:39:24.677Z,99739.64
2023-03-05T11:41:42.136Z,99737.00
2023-03-05T11:43:55.669Z,99737.23
2023-03-05T11:46:12.406Z,99731.85
2023-03-05T11:48:29.022Z,99726.56
2023-03-05T11:50:43.756Z,99724.01
2023-03-05T11:53:04.563Z,99718.27
2023-03-05T11:55:46.396Z,99719.98
2023-03-05T11:58:17.517Z,99716.16
2023-03-05T12:00:32.606Z,99717.16
2023-03-05T12:02:50.093Z,99718.35
2023-03-05T12:05:04.408Z,99716.39
2023-03-05T12:07:23.327Z,99717.44
2023-03-05T12:10:02.583Z,99707.17
2023-03-05T12:12:40.096Z,99698.30
2023-03-05T12:15:09.325Z,99692.77
2023-03-05T12:17:29.122Z,99695.86
2023-03-05T12:20:06.330Z,99690.72
2023-03-05T12:22:22.856Z,99688.34
2023-03-05T12:24:37.438Z,99685.02
2023-03-05T12:26:52.990Z,99684.08
2023-03-05T12:29:05.629Z,99681.98
2023-03-05T12:31:40.034Z,99678.94
2023-03-05T12:33:52.851Z,99683.48
2023-03-05T12:36:17.791Z,99688.36
2023-03-05T12:38:34.245Z,99689.36
2023-03-05T12:40:47.299Z,99688.14
2023-03-05T12:43:04.757Z,99684.90
2023-03-05T12:45:19.465Z,99683.84
2023-03-05T12:47:32.036Z,99688.67
2023-03-05T12:49:46.499Z,99693.89
2023-03-05T12:52:02.026Z,99699.15
2023-03-05T12:54:39.630Z,99701.11
2023-03-05T12:56:53.670Z,99699.51
2023-03-05T12:59:06.280Z,99694.98
2023-03-05T13:01:42.643Z,99697.17
2023-03-05T13:04:00.155Z,99698.74
2023-03-05T13:06:32.504Z,99693.06
2023-03-05T13:08:56.376Z,99696.11
2023-03-05T13:11:18.594Z,99690.96
2023-03-05T13:13:35.851Z,99688.89
2023-03-05T13:15:50.404Z,99688.27
2023-03-05T13:18:07.462Z,99686.34
2023-03-05T13:20:33.910Z,99685.46
2023-03-05T13:22:46.554Z,99681.14
2023-03-05T13:25:20.434Z,99681.89
2023-03-05T13:27:33.220Z,99684.04
2023-03-05T13:29:53.042Z,99687.88
2023-03-05T13:32:31.567Z,99687.39
2023-03-05T13:34:48.153Z,99685.34
2023-03-05T13:37:15.104Z,99692.06
2023-03-05T13:39:33.114Z,99689.50
2023-03-05T13:41:56.113Z,99691.89
2023-03-05T13:44:20.861Z,99692.85
2023-03-05T13:46:36.499Z,99692.98
2023-03-05T13:48:49.147Z,99698.38
2023-03-05T13:51:06.796Z,99693.38
2023-03-05T13:53:31.775Z,99696.43
2023-03-05T13:55:45.338Z,99690.52
2023-03-05T13:57:58.940Z,99698.20
2023-03-05T14:00:39.022Z,99693.48
2023-03-05T14:02:53.020Z,99683.12
2023-03-05T14:05:15.016Z,99679.62
2023-03-05T14:07:54.799Z,99676.00
2023-03-05T14:10:40.091Z,99675.64
2023-03-05T14:12:52.905Z,99667.35
2023-03-05T14:15:24.467Z,99656.67
2023-03-05T14:17:41.018Z,99658.39
2023-03-05T14:20:08.279Z,99665.85
2023-03-05T14:22:35.605Z,99662.83
2023-03-05T14:24:53.971Z,99654.65
2023-03-05T14:27:13.228Z,99659.29
2023-03-05T14:29:28.638Z,99658.95
2023-03-05T14:32:00.248Z,99661.52
2023-03-05T14:34:21.166Z,99658.88
2023-03-05T14:36:34.219Z,99655.59
2023-03-05T14:38:46.834Z,99654.47
2023-03-05T14:41:41.559Z,99653.71
2023-03-05T14:43:55.938Z,99654.75
2023-03-05T14:46:11.635Z,99664.27
2023-03-05T14:48:24.758Z,99662.09
2023-03-05T14:50:46.553Z,99660.38
2023-03-05T14:53:05.926Z,99655.85
2023-03-05T14:55:25.384Z,99654.79
2023-03-05T14:57:37.993Z,99657.05
2023-03-05T14:59:50.721Z,99657.86
2023-03-05T15:02:03.457Z,99658.70
2023-03-05T15:04:19.037Z,99658.50
2023-03-05T15:06:36.611Z,99661.15
2023-03-05T15:08:49.162Z,99661.24
2023-03-05T15:11:03.459Z,99657.27
2023-03-05T15:13:16.649Z,99656.63
2023-03-05T15:15:29.302Z,99661.64
2023-03-05T15:17:47.355Z,99666.30
2023-03-05T15:20:00.803Z,99669.05
2023-03-05T15:22:14.364Z,99665.04
2023-03-05T15:24:26.931Z,99664.35
2023-03-05T15:26:39.722Z,99665.36
2023-03-05T15:28:52.288Z,99668.69
2023-03-05T15:31:06.526Z,99664.50
2023-03-05T15:33:19.237Z,99661.47
2023-03-05T15:35:32.350Z,99659.63
2023-03-05T15:37:44.889Z,99660.11
2023-03-05T15:39:57.380Z,99655.52
2023-03-05T15:42:09.940Z,99657.11
2023-03-05T15:44:22.648Z,99654.37
2023-03-05T15:46:35.550Z,99647.68
2023-03-05T15:48:50.168Z,99639.25
2023-03-05T15:51:06.433Z,99639.57
2023-03-05T15:53:20.124Z,99639.55
2023-03-05T15:55:32.714Z,99642.98
2023-03-05T15:57:50.932Z,99644.21
2023-03-05T16:00:07.361Z,99639.46
2023-03-05T16:02:20.035Z,99641.35
2023-03-05T16:04:32.704Z,99644.52
2023-03-05T16:06:48.724Z,99642.58
2023-03-05T16:09:05.218Z,99641.41
2023-03-05T16:11:18.539Z,99642.60
2023-03-05T16:13:32.401Z,99644.44
2023-03-05T16:15:47.112Z,99642.53
2023-03-05T16:18:04.792Z,99643.69
2023-03-05T16:20:17.682Z,99641.98
2023-03-05T16:22:30.797Z,99635.88
2023-03-05T16:24:43.356Z,99637.05
2023-03-05T16:26:59.721Z,99636.06
2023-03-05T16:29:16.159Z,99638.56
2023-03-05T16:31:34.074Z,99639.30
2023-03-05T16:33:46.608Z,99641.42
2023-03-05T16:36:30.235Z,99645.88
2023-03-05T16:38:42.805Z,99640.90
2023-03-05T16:41:07.910Z,99643.98
2023-03-05T16:43:21.198Z,99640.60
2023-03-05T16:45:34.263Z,99640.27
2023-03-05T16:47:46.801Z,99647.81
2023-03-05T16:50:00.870Z,99649.16
2023-03-05T16:52:19.138Z,99649.55
2023-03-05T16:54:34.125Z,99647.42
2023-03-05T16:56:47.022Z,99648.88
2023-03-05T16:59:00.128Z,99652.20
2023-03-05T17:01:16.888Z,99658.99
2023-03-05T17:03:30.000Z,99662.04
2023-03-05T17:05:42.961Z,99661.06
2023-03-05T17:07:55.805Z,99665.40
2023-03-05T17:10:09.342Z,99664.48
2023-03-05T17:12:23.204Z,99670.73
2023-03-05T17:14:35.882Z,99668.30
2023-03-05T17:16:48.877Z,99668.98
2023-03-05T17:19:01.469Z,99669.71
2023-03-05T17:21:15.041Z,99670.77
2023-03-05T17:23:27.932Z,99673.60
2023-03-05T17:25:40.676Z,99673.99
2023-03-05T17:27:53.379Z,99671.80
2023-03-05T17:30:08.307Z,99672.54
2023-03-05T17:32:20.836Z,99674.25
2023-03-05T17:34:36.708Z,99670.32
2023-03-05T17:36:50.449Z,99669.65
2023-03-05T17:39:04.550Z,99670.18
2023-03-05T17:41:18.551Z,99673.42
2023-03-05T17:43:31.561Z,99670.41
2023-03-05T17:45:44.596Z,99671.61
2023-03-05T17:47:58.717Z,99669.95
2023-03-05T17:50:13.404Z,99670.64
2023-03-05T17:52:26.406Z,99668.85
2023-03-05T17:54:38.896Z,99661.71
2023-03-05T17:56:56.345Z,99662.88
2023-03-05T17:59:08.911Z,99659.36
2023-03-05T18:01:29.273Z,99659.09
2023-03-05T18:03:41.910Z,99659.29
2023-03-05T18:05:54.579Z,99653.34
2023-03-05T18:08:07.670Z,99649.84
2023-03-05T18:10:21.756Z,99648.69
2023-03-05T18:12:34.470Z,99646.64
2023-03-05T18:14:46.982Z,99645.79
2023-03-05T18:17:00.360Z,99652.80
2023-03-05T18:19:16.118Z,99653.48
2023-03-05T18:21:29.133Z,99655.85
2023-03-05T18:23:42.039Z,99654.16
2023-03-05T18:25:55.002Z,99651.45
2023-03-05T18:28:10.931Z,99651.04
2023-03-05T18:30:23.814Z,99645.52
2023-03-05T18:32:36.955Z,99645.98
2023-03-05T18:34:51.374Z,99646.47
2023-03-05T18:37:04.137Z,99645.29
2023-03-05T18:39:18.633Z,99645.48
2023-03-05T18:41:31.462Z,99641.53
2023-03-05T18:43:44.046Z,99640.87
2023-03-05T18:45:57.013Z,99643.66
2023-03-05T18:48:09.630Z,99644.53
2023-03-05T18:50:25.303Z,99649.37
2023-03-05T18:52:37.865Z,99646.31
2023-03-05T18:54:50.397Z,99647.51
2023-03-05T18:57:02.997Z,99645.46
2023-03-05T18:59:15.542Z,99643.13
2023-03-05T19:01:28.529Z,99643.99
2023-03-05T19:03:41.142Z,99644.56
2023-03-05T19:05:53.813Z,99645.30
2023-03-05T19:08:07.872Z,99642.79
2023-03-05T19:10:22.671Z,99641.98
2023-03-05T19:12:45.250Z,99641.34
2023-03-05T19:14:59.380Z,99639.20
2023-03-05T19:17:12.067Z,99638.73
2023-03-05T19:19:24.782Z,99635.80
2023-03-05T19:21:37.346Z,99637.14
2023-03-05T19:23:49.904Z,99634.98
2023-03-05T19:26:03.470Z,99632.12
2023-03-05T19:28:16.023Z,99632.45
2023-03-05T19:30:28.580Z,99633.79
2023-03-05T19:32:41.269Z,99631.21
2023-03-05T19:34:57.958Z,99631.68
2023-03-05T19:37:11.905Z,99631.52
2023-03-05T19:39:24.746Z,99628.45
2023-03-05T19:41:37.375Z,99623.66
2023-03-05T19:43:50.109Z,99624.85
2023-03-05T19:46:05.569Z,99626.62
2023-03-05T19:48:19.087Z,99628.21
2023-03-05T19:50:33.546Z,99626.69
2023-03-05T19:52:46.998Z,99625.73
2023-03-05T19:54:59.991Z,99629.31
2023-03-05T19:57:12.949Z,99629.83
2023-03-05T19:59:26.088Z,99628.46
2023-03-05T20:01:38.726Z,99629.48
2023-03-05T20:03:54.321Z,99628.99
2023-03-05T20:06:07.729Z,99626.11
2023-03-05T20:08:20.336Z,99625.77
2023-03-05T20:10:32.901Z,99624.77
2023-03-05T20:12:48.020Z,99627.17
2023-03-05T20:15:00.748Z,99622.89
2023-03-05T20:17:13.700Z,99625.77
2023-03-05T20:19:26.326Z,99623.39
2023-03-05T20:21:40.977Z,99623.70
2023-03-05T20:23:56.464Z,99621.30
2023-03-05T20:26:09.334Z,99619.41
2023-03-05T20:28:25.916Z,99616.17
2023-03-05T20:30:38.698Z,99618.41
2023-03-05T20:32:51.906Z,99618.11
2023-03-05T20:35:05.033Z,99613.34
2023-03-05T20:37:17.610Z,99615.05
2023-03-05T20:39:30.445Z,99613.35
2023-03-05T20:41:43.090Z,99616.25
2023-03-05T20:43:55.738Z,99619.65
2023-03-05T20:46:19.897Z,99619.65
2023-03-05T20:48:34.210Z,99617.46
2023-03-05T20:50:47.142Z,99614.58
2023-03-05T20:53:00.568Z,99613.02
2023-03-05T20:55:13.168Z,99609.77
2023-03-05T20:57:25.761Z,99612.16
2023-03-05T20:59:38.372Z,99606.98
2023-03-05T21:01:50.947Z,99608.38
2023-03-05T21:04:03.973Z,99608.02
2023-03-05T21:06:16.658Z,99606.80
2023-03-05T21:08:29.233Z,99606.46
2023-03-05T21:10:41.780Z,99608.35
2023-03-05T21:12:54.659Z,99610.23
2023-03-05T21:15:12.043Z,99608.16
2023-03-05T21:17:24.556Z,99608.85
2023-03-05T21:19:38.467Z,99602.02
2023-03-05T21:21:50.998Z,99601.61
2023-03-05T21:24:03.715Z,99601.42
2023-03-05T21:26:16.529Z,99603.67
2023-03-05T21:28:29.467Z,99602.84
2023-03-05T21:30:45.098Z,99600.95
2023-03-05T21:33:02.511Z,99601.28
2023-03-05T21:35:20.436Z,99599.23
2023-03-05T21:37:33.252Z,99596.33
2023-03-05T21:39:45.878Z,99592.73
2023-03-05T21:41:59.512Z,99591.52
2023-03-05T21:44:17.478Z,99593.34
2023-03-05T21:46:30.151Z,99586.16
2023-03-05T21:48:42.796Z,99587.36
2023-03-05T21:50:55.458Z,99588.90
2023-03-05T21:53:08.596Z,99582.76
2023-03-05T21:55:30.283Z,99581.74
2023-03-05T21:57:43.021Z,99581.73
2023-03-05T21:59:55.933Z,99582.81
2023-03-05T22:02:16.035Z,99583.52
2023-03-05T22:04:28.643Z,99578.73
2023-03-05T22:06:41.249Z,99577.70
2023-03-05T22:08:53.778Z,99568.14
2023-03-05T22:11:11.455Z,99568.27
2023-03-05T22:13:24.075Z,99565.69
2023-03-05T22:15:45.291Z,99565.17
2023-03-05T22:17:57.940Z,99559.95
2023-03-05T22:20:11.223Z,99556.73
2023-03-05T22:22:23.757Z,99552.63
2023-03-05T22:24:36.326Z,99550.23
2023-03-05T22:26:49.041Z,99548.06
2023-03-05T22:29:02.618Z,99547.91
2023-03-05T22:31:23.669Z,99543.48
2023-03-05T22:33:36.561Z,99542.13
2023-03-05T22:35:50.050Z,99544.00
2023-03-05T22:38:02.829Z,99546.73
2023-03-05T22:40:18.501Z,99546.22
2023-03-05T22:42:31.034Z,99549.81
2023-03-05T22:44:43.624Z,99547.42
2023-03-05T22:46:56.431Z,99545.23
2023-03-05T22:49:08.968Z,99542.31
2023-03-05T22:51:21.506Z,99543.48
2023-03-05T22:53:34.193Z,99543.47
2023-03-05T22:55:48.203Z,99541.60
2023-03-05T22:58:00.840Z,99542.13
2023-03-05T23:00:21.569Z,99539.40
2023-03-05T23:02:34.399Z,99535.30
2023-03-05T23:04:49.563Z,99534.98
2023-03-05T23:07:02.448Z,99537.39
2023-03-05T23:09:15.077Z,99534.35
2023-03-05T23:11:27.707Z,99530.95
2023-03-05T23:13:40.837Z,99532.13
2023-03-05T23:15:53.402Z,99533.64
2023-03-05T23:18:06.664Z,99533.97
2023-03-05T23:20:22.062Z,99531.45
2023-03-05T23:22:36.758Z,99526.39
2023-03-05T23:24:49.346Z,99528.94
2023-03-05T23:27:05.307Z,99529.27
2023-03-05T23:29:17.901Z,99526.51
2023-03-05T23:31:30.572Z,99527.50
2023-03-05T23:33:43.136Z,99527.68
2023-03-05T23:35:58.965Z,99527.70
2023-03-05T23:38:13.332Z,99529.23
2023-03-05T23:40:31.777Z,99530.60
2023-03-05T23:42:44.555Z,99529.25
2023-03-05T23:44:57.154Z,99524.70
2023-03-05T23:47:09.676Z,99520.11
2023-03-05T23:49:22.239Z,99525.97
2023-03-05T23:51:34.810Z,99520.39
2023-03-05T23:53:48.357Z,99522.13
2023-03-05T23:56:01.499Z,99525.39
2023-03-05T23:58:14.440Z,99520.81
